createdAt,value
2023-03-05T00:01:26.348Z,13.85
2023-03-05T00:03:55.856Z,17.08
2023-03-05T00:06:25.800Z,17.42
2023-03-05T00:08:53.649Z,15.35
2023-03-05T00:11:21.948Z,20.25
2023-03-05T00:13:51.761Z,18.95
2023-03-05T00:16:18.808Z,21.63
2023-03-05T00:18:46.694Z,18.02
2023-03-05T00:21:21.570Z,25.65
2023-03-05T00:23:48.552Z,18.27
2023-03-05T00:26:15.792Z,16.83
2023-03-05T00:28:44.296Z,19.02
2023-03-05T00:31:11.561Z,13.70
2023-03-05T00:33:41.586Z,18.67
2023-03-05T00:36:09.042Z,16.98
2023-03-05T00:38:35.930Z,34.35
2023-03-05T00:43:30.388Z,18.42
2023-03-05T00:45:57.340Z,21.30
2023-03-05T00:50:50.766Z,22.63
2023-03-05T00:55:45.266Z,19.48
2023-03-05T00:58:12.225Z,22.52
2023-03-05T01:00:39.026Z,24.35
2023-03-05T01:03:06.006Z,20.65
2023-03-05T01:05:33.470Z,21.02
2023-03-05T01:08:00.506Z,19.08
2023-03-05T01:10:27.923Z,28.00
2023-03-05T01:12:55.943Z,19.83
2023-03-05T01:15:24.947Z,16.02
2023-03-05T01:17:52.216Z,17.35
2023-03-05T01:20:28.533Z,18.17
2023-03-05T01:22:55.504Z,14.93
2023-03-05T01:25:22.311Z,17.25
2023-03-05T01:27:51.044Z,20.17
2023-03-05T01:30:18.579Z,19.35
2023-03-05T01:32:45.626Z,17.23
2023-03-05T01:35:24.775Z,19.92
2023-03-05T01:37:52.861Z,12.10
2023-03-05T01:40:26.217Z,20.05
2023-03-05T01:43:07.140Z,12.35
2023-03-05T01:45:34.370Z,10.90
2023-03-05T01:48:01.209Z,17.55
2023-03-05T01:50:29.272Z,19.80
2023-03-05T01:53:03.019Z,22.13
2023-03-05T01:55:33.042Z,11.30
2023-03-05T01:58:02.927Z,21.83
2023-03-05T02:00:34.235Z,11.95
2023-03-05T02:03:07.991Z,22.70
2023-03-05T02:05:41.182Z,19.27
2023-03-05T02:08:11.124Z,18.83
2023-03-05T02:10:43.896Z,28.85
2023-03-05T02:15:40.196Z,14.10
2023-03-05T02:18:08.666Z,18.95
2023-03-05T02:20:49.376Z,24.40
2023-03-05T02:23:18.360Z,18.38
2023-03-05T02:25:45.680Z,14.35
2023-03-05T02:28:22.519Z,16.15
2023-03-05T02:30:50.214Z,13.00
2023-03-05T02:33:19.022Z,17.25
2023-03-05T02:35:46.480Z,13.30
2023-03-05T02:38:15.388Z,20.10
2023-03-05T02:40:42.464Z,20.20
2023-03-05T02:43:10.202Z,20.58
2023-03-05T02:45:38.290Z,19.92
2023-03-05T02:48:05.784Z,11.98
2023-03-05T02:50:34.316Z,15.88
2023-03-05T02:53:01.260Z,19.48
2023-03-05T02:55:29.037Z,15.55
2023-03-05T02:57:56.196Z,24.40
2023-03-05T03:02:57.993Z,18.67
2023-03-05T03:05:27.411Z,18.63
2023-03-05T03:07:54.262Z,21.75
2023-03-05T03:10:27.434Z,16.38
2023-03-05T03:12:54.297Z,18.73
2023-03-05T03:15:21.277Z,25.42
2023-03-05T03:17:51.224Z,21.70
2023-03-05T03:20:19.285Z,22.58
2023-03-05T03:22:46.890Z,23.05
2023-03-05T03:25:19.098Z,19.70
2023-03-05T03:27:45.931Z,20.65
2023-03-05T03:32:40.337Z,17.08
2023-03-05T03:35:08.168Z,23.13
2023-03-05T03:37:35.030Z,20.52
2023-03-05T03:40:02.118Z,14.07
2023-03-05T03:42:28.964Z,16.80
2023-03-05T03:44:56.038Z,19.70
2023-03-05T03:47:30.381Z,17.98
2023-03-05T03:49:58.771Z,20.95
2023-03-05T03:52:27.136Z,17.40
2023-03-05T03:54:55.887Z,17.58
2023-03-05T03:57:22.972Z,19.15
2023-03-05T03:59:50.486Z,17.95
2023-03-05T04:02:18.344Z,17.48
2023-03-05T04:04:45.295Z,19.65
2023-03-05T04:07:12.063Z,16.27
2023-03-05T04:12:06.060Z,16.02
2023-03-05T04:14:33.327Z,23.45
2023-03-05T04:17:00.271Z,16.73
2023-03-05T04:19:28.448Z,22.05
2023-03-05T04:21:55.596Z,16.58
2023-03-05T04:24:22.634Z,17.35
2023-03-05T04:29:20.817Z,14.20
2023-03-05T04:31:47.689Z,21.88
2023-03-05T04:36:41.085Z,27.20
2023-03-05T04:39:08.183Z,16.63
2023-03-05T04:41:35.047Z,12.68
2023-03-05T04:44:02.278Z,13.98
2023-03-05T04:46:29.125Z,11.60
2023-03-05T04:49:02.223Z,11.00
2023-03-05T04:51:29.161Z,8.77
2023-03-05T04:53:56.528Z,5.80
2023-03-05T04:56:23.409Z,8.52
2023-03-05T05:01:17.639Z,10.43
2023-03-05T05:03:44.417Z,9.18
2023-03-05T05:08:38.533Z,5.70
2023-03-05T05:11:08.130Z,13.52
2023-03-05T05:13:35.216Z,11.73
2023-03-05T05:16:02.645Z,9.60
2023-03-05T05:18:30.923Z,9.25
2023-03-05T05:20:57.806Z,6.60
2023-03-05T05:26:00.512Z,9.02
2023-03-05T05:28:28.103Z,4.20
2023-03-05T05:30:57.283Z,8.90
2023-03-05T05:33:24.644Z,7.18
2023-03-05T05:35:51.850Z,6.55
2023-03-05T05:38:19.471Z,7.55
2023-03-05T05:40:46.147Z,9.73
2023-03-05T05:43:12.989Z,6.88
2023-03-05T05:45:39.791Z,9.43
2023-03-05T05:48:07.255Z,6.35
2023-03-05T05:50:37.838Z,7.40
2023-03-05T05:53:04.871Z,7.88
2023-03-05T05:55:34.765Z,6.45
2023-03-05T05:58:01.575Z,9.10
2023-03-05T06:00:31.138Z,15.10
2023-03-05T06:03:01.047Z,12.75
2023-03-05T06:05:28.090Z,9.52
2023-03-05T06:07:54.991Z,6.43
2023-03-05T06:10:22.127Z,5.60
2023-03-05T06:12:48.926Z,7.22
2023-03-05T06:15:16.077Z,8.30
2023-03-05T06:17:42.940Z,5.28
2023-03-05T06:20:12.683Z,5.75
2023-03-05T06:22:40.713Z,6.18
2023-03-05T06:25:09.308Z,5.53
2023-03-05T06:27:38.952Z,4.03
2023-03-05T06:30:06.946Z,5.03
2023-03-05T06:32:35.996Z,6.20
2023-03-05T06:35:03.534Z,6.57
2023-03-05T06:37:30.248Z,4.85
2023-03-05T06:39:57.438Z,5.47
2023-03-05T06:42:24.476Z,8.07
2023-03-05T06:44:51.644Z,5.97
2023-03-05T06:47:18.643Z,4.57
2023-03-05T06:49:45.563Z,4.72
2023-03-05T06:52:16.641Z,5.18
2023-03-05T06:54:43.474Z,3.47
2023-03-05T06:57:11.118Z,4.40
2023-03-05T06:59:38.230Z,10.07
2023-03-05T07:02:05.077Z,4.97
2023-03-05T07:07:00.759Z,4.30
2023-03-05T07:09:27.555Z,2.50
2023-03-05T07:11:54.457Z,4.80
2023-03-05T07:14:22.525Z,5.72
2023-03-05T07:16:50.429Z,4.35
2023-03-05T07:19:17.467Z,3.40
2023-03-05T07:21:46.606Z,5.53
2023-03-05T07:24:29.869Z,1.95
2023-03-05T07:26:57.617Z,1.05
2023-03-05T07:29:26.474Z,1.80
2023-03-05T07:31:54.112Z,3.13
2023-03-05T07:34:29.882Z,2.88
2023-03-05T07:36:57.379Z,1.75
2023-03-05T07:39:27.202Z,1.27
2023-03-05T07:41:57.728Z,3.50
2023-03-05T07:44:29.788Z,2.40
2023-03-05T07:46:57.312Z,3.60
2023-03-05T07:49:24.717Z,3.42
2023-03-05T07:51:52.620Z,2.95
2023-03-05T07:54:19.419Z,2.45
2023-03-05T07:59:14.029Z,1.27
2023-03-05T08:01:41.150Z,6.38
2023-03-05T08:04:11.013Z,1.90
2023-03-05T08:06:42.456Z,2.10
2023-03-05T08:09:10.177Z,1.80
2023-03-05T08:11:37.130Z,1.45
2023-03-05T08:14:04.768Z,3.33
2023-03-05T08:16:32.620Z,1.80
2023-03-05T08:19:00.224Z,1.73
2023-03-05T08:21:35.841Z,2.28
2023-03-05T08:24:06.631Z,1.70
2023-03-05T08:26:35.974Z,2.15
2023-03-05T08:29:03.706Z,2.08
2023-03-05T08:31:31.580Z,1.33
2023-03-05T08:34:00.721Z,1.20
2023-03-05T08:36:29.192Z,2.58
2023-03-05T08:39:01.573Z,2.08
2023-03-05T08:41:28.884Z,2.03
2023-03-05T08:43:56.128Z,1.00
2023-03-05T08:46:23.545Z,0.63
2023-03-05T08:48:50.444Z,6.28
2023-03-05T08:51:21.198Z,0.35
2023-03-05T08:53:48.581Z,2.30
2023-03-05T08:56:15.674Z,2.60
2023-03-05T08:58:43.168Z,1.40
2023-03-05T09:01:10.276Z,1.70
2023-03-05T09:03:37.366Z,1.35
2023-03-05T09:06:11.735Z,2.38
2023-03-05T09:08:39.903Z,0.45
2023-03-05T09:11:09.749Z,0.93
2023-03-05T09:13:37.513Z,1.23
2023-03-05T09:16:08.564Z,0.82
2023-03-05T09:18:38.567Z,0.98
2023-03-05T09:21:07.468Z,0.45
2023-03-05T09:23:34.899Z,2.05
2023-03-05T09:26:08.690Z,1.42
2023-03-05T09:28:35.831Z,0.47
2023-03-05T09:31:04.327Z,1.33
2023-03-05T09:33:32.926Z,2.70
2023-03-05T09:36:01.404Z,1.27
2023-03-05T09:38:28.785Z,1.05
2023-03-05T09:41:15.875Z,1.30
2023-03-05T09:44:06.073Z,2.50
2023-03-05T09:46:44.126Z,1.52
2023-03-05T09:49:39.416Z,0.68
2023-03-05T09:52:26.783Z,2.90
2023-03-05T09:54:57.204Z,1.25
2023-03-05T09:57:44.589Z,2.20
2023-03-05T10:00:38.680Z,1.65
2023-03-05T10:03:13.352Z,1.52
2023-03-05T10:05:50.797Z,1.52
2023-03-05T10:08:22.422Z,0.77
2023-03-05T10:10:53.604Z,1.38
2023-03-05T10:13:25.552Z,1.45
2023-03-05T10:16:13.622Z,1.33
2023-03-05T10:18:51.873Z,2.58
2023-03-05T10:21:30.660Z,1.88
2023-03-05T10:24:12.221Z,2.65
2023-03-05T10:27:15.646Z,1.25
2023-03-05T10:29:59.614Z,2.10
2023-03-05T10:32:35.630Z,1.42
2023-03-05T10:35:53.465Z,2.03
2023-03-05T10:39:02.385Z,1.05
2023-03-05T10:41:55.165Z,2.25
2023-03-05T10:44:35.508Z,1.48
2023-03-05T10:47:03.784Z,1.25
2023-03-05T10:49:37.765Z,1.15
2023-03-05T10:52:28.586Z,2.35
2023-03-05T10:54:55.444Z,1.70
2023-03-05T10:57:25.138Z,2.95
2023-03-05T11:00:18.610Z,1.52
2023-03-05T11:03:04.785Z,5.43
2023-03-05T11:05:42.379Z,2.70
2023-03-05T11:08:28.762Z,1.10
2023-03-05T11:11:17.916Z,2.80
2023-03-05T11:13:59.980Z,1.55
2023-03-05T11:16:30.443Z,1.80
2023-03-05T11:19:21.398Z,1.85
2023-03-05T11:22:15.911Z,1.38
2023-03-05T11:24:46.792Z,1.60
2023-03-05T11:27:55.019Z,1.55
2023-03-05T11:30:26.040Z,2.45
2023-03-05T11:33:17.779Z,1.60
2023-03-05T11:35:45.193Z,2.45
2023-03-05T11:38:24.707Z,1.30
2023-03-05T11:40:53.848Z,1.60
2023-03-05T11:43:23.966Z,2.03
2023-03-05T11:45:59.629Z,1.23
2023-03-05T11:48:35.136Z,1.58
2023-03-05T11:51:19.665Z,1.05
2023-03-05T11:53:52.456Z,1.20
2023-03-05T11:59:28.469Z,0.63
2023-03-05T12:01:57.658Z,2.03
2023-03-05T12:04:25.412Z,2.83
2023-03-05T12:06:56.030Z,1.17
2023-03-05T12:09:44.465Z,1.40
2023-03-05T12:12:38.939Z,2.35
2023-03-05T12:15:15.471Z,2.55
2023-03-05T12:18:02.146Z,3.08
2023-03-05T12:20:53.788Z,1.63
2023-03-05T12:23:28.166Z,2.60
2023-03-05T12:26:00.072Z,1.05
2023-03-05T12:28:36.621Z,0.60
2023-03-05T12:31:10.263Z,1.75
2023-03-05T12:33:44.727Z,2.53
2023-03-05T12:36:17.658Z,1.48
2023-03-05T12:38:53.588Z,1.15
2023-03-05T12:41:23.514Z,1.33
2023-03-05T12:44:19.110Z,1.58
2023-03-05T12:47:07.594Z,1.65
2023-03-05T12:49:46.027Z,1.77
2023-03-05T12:52:25.215Z,1.17
2023-03-05T12:55:14.957Z,0.85
2023-03-05T12:57:45.940Z,1.00
2023-03-05T13:00:43.315Z,1.70
2023-03-05T13:03:16.997Z,2.03
2023-03-05T13:05:53.861Z,0.85
2023-03-05T13:08:25.912Z,1.23
2023-03-05T13:10:55.257Z,1.38
2023-03-05T13:13:23.925Z,2.42
2023-03-05T13:15:52.785Z,1.08
2023-03-05T13:18:31.987Z,3.45
2023-03-05T13:21:04.572Z,2.63
2023-03-05T13:23:33.270Z,0.90
2023-03-05T13:26:12.838Z,2.13
2023-03-05T13:28:40.191Z,2.58
2023-03-05T13:31:18.650Z,1.85
2023-03-05T13:33:56.381Z,0.57
2023-03-05T13:36:27.132Z,3.00
2023-03-05T13:38:54.465Z,1.00
2023-03-05T13:41:28.501Z,1.65
2023-03-05T13:43:56.588Z,0.95
2023-03-05T13:46:39.316Z,3.33
2023-03-05T13:49:27.379Z,0.90
2023-03-05T13:54:27.028Z,1.80
2023-03-05T13:56:59.936Z,3.17
2023-03-05T13:59:31.762Z,1.92
2023-03-05T14:02:01.126Z,4.07
2023-03-05T14:04:34.721Z,2.60
2023-03-05T14:07:41.727Z,1.65
2023-03-05T14:10:35.089Z,2.83
2023-03-05T14:13:25.771Z,3.25
2023-03-05T14:16:28.178Z,1.38
2023-03-05T14:19:01.716Z,3.33
2023-03-05T14:21:47.660Z,1.10
2023-03-05T14:24:50.584Z,2.22
2023-03-05T14:28:07.574Z,1.70
2023-03-05T14:30:50.725Z,1.52
2023-03-05T14:33:36.998Z,1.58
2023-03-05T14:36:05.029Z,1.92
2023-03-05T14:38:36.364Z,2.35
2023-03-05T14:41:22.777Z,1.40
2023-03-05T14:43:50.229Z,1.98
2023-03-05T14:46:17.458Z,1.40
2023-03-05T14:48:45.115Z,2.00
2023-03-05T14:51:12.979Z,1.42
2023-03-05T14:53:48.448Z,2.33
2023-03-05T14:56:24.454Z,1.50
2023-03-05T14:58:57.843Z,1.33
2023-03-05T15:01:25.500Z,1.05
2023-03-05T15:03:52.962Z,1.55
2023-03-05T15:06:50.762Z,1.23
2023-03-05T15:09:19.916Z,1.23
2023-03-05T15:11:48.326Z,1.85
2023-03-05T15:14:15.196Z,1.85
2023-03-05T15:19:13.844Z,1.92
2023-03-05T15:21:41.700Z,2.20
2023-03-05T15:24:11.320Z,2.35
2023-03-05T15:26:38.653Z,2.13
2023-03-05T15:29:05.692Z,2.25
2023-03-05T15:31:38.689Z,1.98
2023-03-05T15:34:06.468Z,1.65
2023-03-05T15:36:37.154Z,1.65
2023-03-05T15:39:04.137Z,2.22
2023-03-05T15:41:31.257Z,1.20
2023-03-05T15:43:58.292Z,0.88
2023-03-05T15:46:25.770Z,0.95
2023-03-05T15:48:52.681Z,1.08
2023-03-05T15:53:47.886Z,2.05
2023-03-05T15:56:16.791Z,1.92
2023-03-05T15:58:43.708Z,2.58
2023-03-05T16:01:12.076Z,1.55
2023-03-05T16:03:41.387Z,2.65
2023-03-05T16:06:26.719Z,1.70
2023-03-05T16:09:14.096Z,2.03
2023-03-05T16:11:48.225Z,3.92
2023-03-05T16:14:19.483Z,2.70
2023-03-05T16:16:47.878Z,1.92
2023-03-05T16:19:18.249Z,3.03
2023-03-05T16:21:47.177Z,3.72
2023-03-05T16:24:20.369Z,1.92
2023-03-05T16:26:47.870Z,1.15
2023-03-05T16:29:17.457Z,2.40
2023-03-05T16:31:46.314Z,3.95
2023-03-05T16:34:14.616Z,4.43
2023-03-05T16:36:48.513Z,3.10
2023-03-05T16:39:15.648Z,6.70
2023-03-05T16:41:42.881Z,3.47
2023-03-05T16:44:11.190Z,2.17
2023-03-05T16:46:41.400Z,1.95
2023-03-05T16:49:09.141Z,3.10
2023-03-05T16:51:36.838Z,3.47
2023-03-05T16:54:10.088Z,2.20
2023-03-05T16:56:38.735Z,3.50
2023-03-05T16:59:05.994Z,2.35
2023-03-05T17:01:33.319Z,1.65
2023-03-05T17:06:31.326Z,2.25
2023-03-05T17:08:59.201Z,1.83
2023-03-05T17:11:29.186Z,2.58
2023-03-05T17:13:56.376Z,9.82
2023-03-05T17:16:23.309Z,2.65
2023-03-05T17:18:50.277Z,4.45
2023-03-05T17:21:17.532Z,3.97
2023-03-05T17:23:44.802Z,2.47
2023-03-05T17:26:15.516Z,2.17
2023-03-05T17:28:42.942Z,4.35
2023-03-05T17:31:10.814Z,2.72
2023-03-05T17:33:38.606Z,2.88
2023-03-05T17:36:06.489Z,3.33
2023-03-05T17:38:33.324Z,5.72
2023-03-05T17:43:26.966Z,2.13
2023-03-05T17:45:59.828Z,2.50
2023-03-05T17:48:28.141Z,4.72
2023-03-05T17:50:58.416Z,1.95
2023-03-05T17:53:25.303Z,1.88
2023-03-05T17:55:52.769Z,2.58
2023-03-05T17:58:20.065Z,4.93
2023-03-05T18:00:47.128Z,2.55
2023-03-05T18:03:14.702Z,4.75
2023-03-05T18:05:42.102Z,4.30
2023-03-05T18:08:09.587Z,3.20
2023-03-05T18:10:41.501Z,9.88
2023-03-05T18:13:09.129Z,3.28
2023-03-05T18:15:38.203Z,2.83
2023-03-05T18:18:07.530Z,3.00
2023-03-05T18:20:37.528Z,4.43
2023-03-05T18:23:06.125Z,2.25
2023-03-05T18:25:34.109Z,3.53
2023-03-05T18:28:08.559Z,3.30
2023-03-05T18:30:36.623Z,4.38
2023-03-05T18:33:09.312Z,6.80
2023-03-05T18:35:36.903Z,5.07
2023-03-05T18:38:06.548Z,4.55
2023-03-05T18:40:35.897Z,2.97
2023-03-05T18:43:03.146Z,2.85
2023-03-05T18:45:35.924Z,4.03
2023-03-05T18:48:03.122Z,3.95
2023-03-05T18:50:30.469Z,3.13
2023-03-05T18:52:57.583Z,3.60
2023-03-05T18:55:28.073Z,2.20
2023-03-05T18:57:55.929Z,3.70
2023-03-05T19:00:53.667Z,4.10
2023-03-05T19:03:22.868Z,3.28
2023-03-05T19:05:51.254Z,2.03
2023-03-05T19:08:18.833Z,1.80
2023-03-05T19:10:49.522Z,2.38
2023-03-05T19:13:37.005Z,3.10
2023-03-05T19:16:11.893Z,2.17
2023-03-05T19:18:44.893Z,1.42
2023-03-05T19:21:12.238Z,2.83
2023-03-05T19:23:39.251Z,3.28
2023-03-05T19:26:06.257Z,3.35
2023-03-05T19:28:33.342Z,4.47
2023-03-05T19:31:00.362Z,3.30
2023-03-05T19:33:27.446Z,4.50
2023-03-05T19:38:24.955Z,2.13
2023-03-05T19:40:51.983Z,3.70
2023-03-05T19:43:18.885Z,5.03
2023-03-05T19:48:14.135Z,2.53
2023-03-05T19:50:41.130Z,4.63
2023-03-05T19:53:08.058Z,1.17
2023-03-05T19:55:42.484Z,3.40
2023-03-05T19:58:09.494Z,2.83
2023-03-05T20:00:36.630Z,2.88
2023-03-05T20:03:03.718Z,1.90
2023-03-05T20:05:30.792Z,4.00
2023-03-05T20:07:58.051Z,5.55
2023-03-05T20:10:25.687Z,2.17
2023-03-05T20:12:53.886Z,4.30
2023-03-05T20:15:23.451Z,2.92
2023-03-05T20:17:52.716Z,2.75
2023-03-05T20:20:19.942Z,3.53
2023-03-05T20:22:47.644Z,2.75
2023-03-05T20:25:17.618Z,3.55
2023-03-05T20:27:50.916Z,2.47
2023-03-05T20:30:18.059Z,1.80
2023-03-05T20:34:39.640Z,2.40
2023-03-05T20:37:06.707Z,4.90
2023-03-05T20:39:37.994Z,2.78
2023-03-05T20:42:05.459Z,2.55
2023-03-05T20:44:33.718Z,3.60
2023-03-05T20:47:12.663Z,2.58
2023-03-05T20:52:06.817Z,3.00
2023-03-05T20:54:34.080Z,5.82
2023-03-05T20:57:02.402Z,3.70
2023-03-05T20:59:29.239Z,5.10
2023-03-05T21:01:56.493Z,4.30
2023-03-05T21:04:23.327Z,4.00
2023-03-05T21:09:21.839Z,3.65
2023-03-05T21:11:48.778Z,2.15
2023-03-05T21:14:15.624Z,4.32
2023-03-05T21:16:43.378Z,2.60
2023-03-05T21:19:10.835Z,3.33
2023-03-05T21:21:39.173Z,3.40
2023-03-05T21:24:06.761Z,3.20
2023-03-05T21:26:33.846Z,4.15
2023-03-05T21:29:00.669Z,2.30
2023-03-05T21:33:55.007Z,2.33
2023-03-05T21:36:23.742Z,3.80
2023-03-05T21:38:50.697Z,3.28
2023-03-05T21:41:20.510Z,4.63
2023-03-05T21:43:48.159Z,5.15
2023-03-05T21:46:15.341Z,4.32
2023-03-05T21:48:42.782Z,2.75
2023-03-05T21:51:11.589Z,4.85
2023-03-05T21:53:38.575Z,2.33
2023-03-05T21:58:49.993Z,3.58
2023-03-05T22:01:19.320Z,5.32
2023-03-05T22:03:46.845Z,5.20
2023-03-05T22:06:16.695Z,4.85
2023-03-05T22:08:44.237Z,3.83
2023-03-05T22:11:16.814Z,4.50
2023-03-05T22:13:44.761Z,3.75
2023-03-05T22:16:12.232Z,3.67
2023-03-05T22:18:39.023Z,2.65
2023-03-05T22:21:14.891Z,4.03
2023-03-05T22:23:42.156Z,4.00
2023-03-05T22:26:09.856Z,2.10
2023-03-05T22:28:39.054Z,3.35
2023-03-05T22:31:06.792Z,3.28
2023-03-05T22:33:34.297Z,2.95
2023-03-05T22:36:07.750Z,5.20
2023-03-05T22:38:34.674Z,4.97
2023-03-05T22:43:28.583Z,7.35
2023-03-05T22:45:55.571Z,2.80
2023-03-05T22:48:22.824Z,5.53
2023-03-05T22:50:57.774Z,5.95
2023-03-05T22:53:24.835Z,4.15
2023-03-05T22:55:51.810Z,3.85
2023-03-05T22:58:18.953Z,3.92
2023-03-05T23:00:46.148Z,4.78
2023-03-05T23:03:13.381Z,4.90
2023-03-05T23:05:40.890Z,3.85
2023-03-05T23:08:08.491Z,9.63
2023-03-05T23:10:35.478Z,4.25
2023-03-05T23:13:02.465Z,4.10
2023-03-05T23:15:38.211Z,10.60
2023-03-05T23:18:06.629Z,4.93
2023-03-05T23:20:36.387Z,8.70
2023-03-05T23:23:04.189Z,3.50
2023-03-05T23:25:34.225Z,2.17
2023-03-05T23:28:02.018Z,2.95
2023-03-05T23:30:37.378Z,3.97
2023-03-05T23:33:16.154Z,3.10
2023-03-05T23:38:16.511Z,5.53
2023-03-05T23:40:51.824Z,5.65
2023-03-05T23:43:20.015Z,5.07
2023-03-05T23:45:48.985Z,6.20
2023-03-05T23:48:17.527Z,6.28
2023-03-05T23:50:47.559Z,4.40
2023-03-05T23:53:25.431Z,3.13
2023-03-05T23:55:52.427Z,4.25
2023-03-05T23:58:22.472Z,5.93
